createdAt,value
2023-02-22T00:01:44.947Z,76.95
2023-02-22T00:04:47.993Z,76.63
2023-02-22T00:08:03.219Z,76.67
2023-02-22T00:13:45.364Z,76.76
2023-02-22T00:17:11.232Z,77.12
2023-02-22T00:20:21.594Z,77.02
2023-02-22T00:27:03.649Z,76.76
2023-02-22T00:30:15.355Z,76.88
2023-02-22T00:33:07.609Z,76.95
2023-02-22T00:35:48.245Z,77.04
2023-02-22T00:38:27.983Z,76.90
2023-02-22T00:48:41.181Z,77.10
2023-02-22T00:51:41.273Z,77.11
2023-02-22T00:54:29.368Z,77.36
2023-02-22T01:05:17.000Z,77.51
2023-02-22T01:08:11.142Z,77.64
2023-02-22T01:11:02.569Z,77.45
2023-02-22T01:14:00.769Z,77.53
2023-02-22T01:20:50.039Z,77.61
2023-02-22T01:31:20.066Z,77.57
2023-02-22T01:34:29.727Z,77.66
2023-02-22T01:37:48.733Z,77.67
2023-02-22T01:44:57.216Z,77.54
2023-02-22T01:47:59.312Z,77.97
2023-02-22T01:50:56.542Z,77.79
2023-02-22T01:53:57.774Z,77.65
2023-02-22T01:57:02.387Z,77.86
2023-02-22T01:59:51.747Z,77.99
2023-02-22T02:02:46.352Z,77.74
2023-02-22T02:05:32.922Z,78.02
2023-02-22T02:08:26.122Z,77.96
2023-02-22T02:10:59.464Z,78.14
2023-02-22T02:13:40.963Z,78.20
2023-02-22T02:16:45.891Z,78.12
2023-02-22T02:23:51.972Z,78.09
2023-02-22T02:45:45.790Z,78.40
2023-02-22T02:48:57.120Z,78.44
2023-02-22T02:51:37.343Z,78.65
2023-02-22T02:54:28.490Z,78.24
2023-02-22T03:05:42.202Z,78.35
2023-02-22T03:09:36.969Z,78.68
2023-02-22T03:13:38.883Z,78.29
2023-02-22T03:16:42.466Z,78.48
2023-02-22T03:19:33.634Z,78.58
2023-02-22T03:26:34.440Z,78.66
2023-02-22T03:29:26.174Z,78.42
2023-02-22T03:35:56.463Z,78.63
2023-02-22T03:38:53.981Z,78.75
2023-02-22T03:41:40.554Z,78.76
2023-02-22T03:49:09.617Z,78.80
2023-02-22T03:51:57.382Z,78.95
2023-02-22T04:18:07.245Z,78.73
2023-02-22T04:20:38.390Z,79.16
2023-02-22T04:23:53.039Z,79.03
2023-02-22T04:26:22.439Z,79.12
2023-02-22T04:56:19.566Z,79.53
2023-02-22T05:06:14.833Z,79.68
2023-02-22T05:08:41.493Z,79.72
2023-02-22T05:11:08.367Z,79.91
2023-02-22T05:13:35.596Z,79.67
2023-02-22T05:16:02.906Z,79.90
2023-02-22T05:18:29.880Z,79.99
2023-02-22T05:20:56.754Z,80.00
2023-02-22T05:23:23.494Z,79.81
2023-02-22T05:25:50.249Z,79.73
2023-02-22T05:28:17.211Z,79.66
2023-02-22T05:30:44.064Z,79.61
2023-02-22T05:33:10.922Z,79.54
2023-02-22T05:35:37.851Z,79.59
2023-02-22T05:38:05.642Z,79.92
2023-02-22T05:40:32.450Z,79.80
2023-02-22T05:42:59.713Z,79.90
2023-02-22T05:45:27.477Z,80.16
2023-02-22T05:47:54.847Z,80.03
2023-02-22T05:50:22.325Z,79.95
2023-02-22T05:53:15.734Z,80.23
2023-02-22T05:55:42.371Z,80.04
2023-02-22T05:58:09.104Z,79.67
2023-02-22T06:00:35.909Z,79.60
2023-02-22T06:03:05.342Z,79.89
2023-02-22T06:05:32.142Z,79.65
2023-02-22T06:08:00.143Z,79.63
2023-02-22T06:10:27.377Z,80.06
2023-02-22T06:12:55.391Z,79.82
2023-02-22T06:15:30.572Z,79.82
2023-02-22T06:17:59.234Z,79.65
2023-02-22T06:20:58.604Z,79.62
2023-02-22T06:24:58.867Z,79.66
2023-02-22T06:27:31.003Z,79.62
2023-02-22T06:30:12.213Z,79.50
2023-02-22T06:32:48.036Z,79.82
2023-02-22T06:35:15.407Z,79.91
2023-02-22T06:37:42.268Z,79.72
2023-02-22T06:40:17.364Z,79.33
2023-02-22T06:43:55.698Z,79.66
2023-02-22T06:46:12.810Z,79.67
2023-02-22T06:48:58.947Z,79.56
2023-02-22T06:51:26.751Z,79.59
2023-02-22T06:53:53.802Z,79.71
2023-02-22T06:56:21.056Z,79.35
2023-02-22T06:58:49.471Z,79.50
2023-02-22T07:01:28.911Z,79.63
2023-02-22T07:03:55.805Z,79.48
2023-02-22T07:06:23.082Z,79.43
2023-02-22T07:08:50.016Z,79.59
2023-02-22T07:11:17.498Z,79.62
2023-02-22T07:13:44.372Z,79.59
2023-02-22T07:16:19.913Z,79.44
2023-02-22T07:18:52.689Z,79.39
2023-02-22T07:21:19.949Z,79.75
2023-02-22T07:23:59.451Z,79.43
2023-02-22T07:26:26.963Z,79.28
2023-02-22T07:28:54.064Z,79.46
2023-02-22T07:31:20.738Z,79.46
2023-02-22T07:33:47.848Z,79.39
2023-02-22T07:36:17.995Z,79.60
2023-02-22T07:38:45.711Z,79.10
2023-02-22T07:41:12.671Z,79.32
2023-02-22T07:43:39.437Z,79.12
2023-02-22T07:46:06.391Z,79.54
2023-02-22T07:48:33.283Z,79.09
2023-02-22T07:51:00.489Z,78.88
2023-02-22T07:53:33.576Z,79.04
2023-02-22T07:56:01.830Z,78.97
2023-02-22T07:58:30.034Z,78.93
2023-02-22T08:00:59.462Z,78.49
2023-02-22T08:03:26.914Z,78.69
2023-02-22T08:06:00.668Z,78.41
2023-02-22T08:08:43.503Z,78.38
2023-02-22T08:11:18.760Z,78.29
2023-02-22T08:13:48.058Z,78.36
2023-02-22T08:16:14.791Z,78.57
2023-02-22T08:18:42.419Z,78.26
2023-02-22T08:21:28.791Z,78.43
2023-02-22T08:23:56.089Z,78.49
2023-02-22T08:26:25.533Z,78.61
2023-02-22T08:28:52.264Z,78.63
2023-02-22T08:31:19.421Z,78.75
2023-02-22T08:33:50.046Z,78.77
2023-02-22T08:36:17.653Z,79.06
2023-02-22T08:38:44.360Z,78.78
2023-02-22T08:41:11.027Z,79.06
2023-02-22T08:43:37.735Z,78.90
2023-02-22T08:47:26.444Z,78.94
2023-02-22T08:49:55.911Z,78.72
2023-02-22T08:52:22.662Z,78.91
2023-02-22T08:54:49.332Z,78.91
2023-02-22T08:57:16.085Z,78.85
2023-02-22T08:59:42.914Z,78.79
2023-02-22T09:02:26.430Z,78.42
2023-02-22T09:05:27.721Z,78.50
2023-02-22T09:08:03.433Z,78.27
2023-02-22T09:10:50.414Z,77.81
2023-02-22T09:13:39.972Z,77.41
2023-02-22T09:16:27.185Z,77.40
2023-02-22T09:19:05.620Z,77.13
2023-02-22T09:21:32.697Z,76.53
2023-02-22T09:24:11.416Z,76.52
2023-02-22T09:27:04.168Z,76.25
2023-02-22T09:29:45.663Z,76.19
2023-02-22T09:32:32.242Z,75.95
2023-02-22T09:35:17.131Z,75.73
2023-02-22T09:37:45.198Z,75.36
2023-02-22T09:40:38.240Z,75.36
2023-02-22T09:43:26.958Z,75.22
2023-02-22T09:46:39.159Z,74.83
2023-02-22T09:49:41.899Z,74.93
2023-02-22T09:52:18.875Z,74.62
2023-02-22T09:54:52.091Z,74.43
2023-02-22T09:57:26.220Z,74.14
2023-02-22T09:59:58.055Z,74.17
2023-02-22T10:03:14.798Z,74.21
2023-02-22T10:05:44.268Z,74.15
2023-02-22T10:08:13.965Z,73.51
2023-02-22T10:10:46.207Z,73.67
2023-02-22T10:14:10.602Z,73.49
2023-02-22T10:17:12.712Z,73.44
2023-02-22T10:20:23.220Z,73.41
2023-02-22T10:23:24.058Z,73.35
2023-02-22T10:29:05.685Z,73.03
2023-02-22T10:32:01.414Z,72.90
2023-02-22T10:34:48.784Z,73.04
2023-02-22T10:37:56.403Z,72.90
2023-02-22T10:41:17.476Z,72.31
2023-02-22T10:44:01.590Z,72.12
2023-02-22T10:46:44.276Z,71.87
2023-02-22T10:49:57.307Z,71.63
2023-02-22T10:52:44.063Z,71.65
2023-02-22T10:55:20.208Z,71.37
2023-02-22T10:57:49.854Z,71.05
2023-02-22T11:00:26.586Z,71.20
2023-02-22T11:02:58.368Z,70.96
2023-02-22T11:05:45.675Z,70.79
2023-02-22T11:08:21.665Z,70.54
2023-02-22T11:10:53.946Z,70.38
2023-02-22T11:13:28.066Z,70.43
2023-02-22T11:15:56.161Z,69.77
2023-02-22T11:18:26.596Z,69.69
2023-02-22T11:21:04.632Z,69.78
2023-02-22T11:23:32.039Z,69.65
2023-02-22T11:26:02.824Z,69.59
2023-02-22T11:28:33.098Z,69.15
2023-02-22T11:31:11.587Z,69.13
2023-02-22T11:33:38.799Z,68.87
2023-02-22T11:45:01.974Z,68.59
2023-02-22T11:52:16.963Z,68.19
2023-02-22T11:55:36.468Z,68.24
2023-02-22T11:59:33.960Z,68.20
2023-02-22T12:14:27.422Z,67.99
2023-02-22T12:28:25.566Z,67.93
2023-02-22T12:31:58.786Z,67.92
2023-02-22T12:34:27.914Z,67.99
2023-02-22T12:49:02.133Z,67.51
2023-02-22T12:51:54.580Z,67.46
2023-02-22T13:07:40.449Z,67.89
2023-02-22T13:10:26.783Z,67.71
2023-02-22T13:13:04.932Z,67.82
2023-02-22T13:16:04.925Z,67.93
2023-02-22T13:18:54.466Z,67.71
2023-02-22T13:21:42.190Z,67.81
2023-02-22T13:24:27.969Z,67.92
2023-02-22T13:45:23.252Z,68.48
2023-02-22T13:48:28.336Z,68.41
2023-02-22T13:51:15.534Z,68.68
2023-02-22T13:53:56.276Z,68.64
2023-02-22T13:56:32.482Z,68.73
2023-02-22T13:59:43.756Z,68.60
2023-02-22T14:02:32.686Z,68.32
2023-02-22T14:04:59.434Z,68.73
2023-02-22T14:07:28.448Z,68.64
2023-02-22T14:10:07.512Z,68.50
2023-02-22T14:15:31.244Z,68.43
2023-02-22T14:18:14.212Z,68.43
2023-02-22T14:20:41.148Z,68.60
2023-02-22T14:23:39.460Z,68.62
2023-02-22T14:26:37.584Z,68.12
2023-02-22T14:29:18.485Z,68.17
2023-02-22T14:31:50.233Z,68.67
2023-02-22T14:34:43.230Z,68.37
2023-02-22T14:37:17.961Z,68.59
2023-02-22T14:40:25.955Z,68.30
2023-02-22T14:43:25.130Z,68.70
2023-02-22T14:49:50.023Z,68.88
2023-02-22T14:52:25.432Z,68.68
2023-02-22T14:55:05.739Z,68.69
2023-02-22T14:57:55.916Z,68.51
2023-02-22T15:00:48.112Z,68.85
2023-02-22T15:04:07.743Z,68.57
2023-02-22T15:06:36.702Z,68.71
2023-02-22T15:09:28.961Z,68.43
2023-02-22T15:12:02.997Z,68.37
2023-02-22T15:14:33.200Z,68.56
2023-02-22T15:17:08.335Z,68.35
2023-02-22T15:19:40.365Z,68.50
2023-02-22T15:22:19.515Z,68.51
2023-02-22T15:25:02.254Z,69.08
2023-02-22T15:27:29.232Z,69.04
2023-02-22T15:30:08.564Z,69.06
2023-02-22T15:32:49.966Z,68.95
2023-02-22T15:35:27.259Z,69.14
2023-02-22T15:38:12.358Z,69.24
2023-02-22T15:40:44.967Z,69.07
2023-02-22T15:43:21.973Z,69.08
2023-02-22T15:45:51.262Z,69.47
2023-02-22T15:48:22.059Z,69.29
2023-02-22T15:51:04.629Z,69.67
2023-02-22T15:53:43.003Z,69.59
2023-02-22T15:56:18.258Z,69.58
2023-02-22T15:58:47.352Z,69.77
2023-02-22T16:01:19.254Z,69.96
2023-02-22T16:03:52.258Z,70.28
2023-02-22T16:06:33.596Z,70.03
2023-02-22T16:09:07.689Z,70.13
2023-02-22T16:11:40.520Z,70.21
2023-02-22T16:14:28.258Z,70.42
2023-02-22T16:17:24.879Z,70.32
2023-02-22T16:19:52.986Z,70.82
2023-02-22T16:22:34.247Z,70.67
2023-02-22T16:25:19.223Z,70.49
2023-02-22T16:27:50.198Z,70.67
2023-02-22T16:30:26.115Z,70.95
2023-02-22T16:32:55.319Z,70.94
2023-02-22T16:35:22.332Z,71.21
2023-02-22T16:37:51.434Z,71.57
2023-02-22T16:40:39.109Z,71.13
2023-02-22T16:43:12.307Z,71.28
2023-02-22T16:45:41.269Z,71.43
2023-02-22T16:48:38.567Z,71.41
2023-02-22T16:51:21.630Z,71.66
2023-02-22T16:53:49.372Z,71.59
2023-02-22T16:56:19.205Z,71.69
2023-02-22T16:58:50.080Z,71.66
2023-02-22T17:01:24.632Z,71.64
2023-02-22T17:03:56.829Z,71.94
2023-02-22T17:06:23.641Z,71.66
2023-02-22T17:08:52.118Z,71.53
2023-02-22T17:11:19.050Z,71.79
2023-02-22T17:13:51.164Z,71.43
2023-02-22T17:16:23.953Z,71.49
2023-02-22T17:18:51.488Z,71.60
2023-02-22T17:21:18.349Z,71.50
2023-02-22T17:23:46.169Z,71.41
2023-02-22T17:26:13.922Z,71.33
2023-02-22T17:28:51.371Z,71.54
2023-02-22T17:31:58.898Z,71.34
2023-02-22T17:34:45.083Z,71.75
2023-02-22T17:37:16.708Z,71.41
2023-02-22T17:39:43.402Z,71.90
2023-02-22T17:42:10.066Z,71.95
2023-02-22T17:44:36.793Z,71.74
2023-02-22T17:47:03.727Z,71.68
2023-02-22T17:49:30.840Z,71.65
2023-02-22T17:51:57.586Z,71.90
2023-02-22T17:54:24.684Z,72.07
2023-02-22T17:56:51.492Z,72.02
2023-02-22T17:59:18.184Z,72.17
2023-02-22T18:01:45.481Z,72.25
2023-02-22T18:04:12.301Z,72.39
2023-02-22T18:06:40.184Z,72.49
2023-02-22T18:09:11.007Z,72.58
2023-02-22T18:11:39.261Z,72.79
2023-02-22T18:14:10.047Z,72.97
2023-02-22T18:16:39.793Z,72.86
2023-02-22T18:19:07.472Z,73.22
2023-02-22T18:21:34.144Z,73.89
2023-02-22T18:25:05.853Z,73.99
2023-02-22T18:42:20.521Z,72.66
2023-02-22T18:44:51.899Z,72.90
2023-02-22T18:47:19.433Z,73.35
2023-02-22T18:49:46.371Z,73.16
2023-02-22T18:52:13.541Z,72.98
2023-02-22T18:54:45.036Z,73.07
2023-02-22T18:57:28.833Z,73.24
2023-02-22T19:00:52.651Z,73.10
2023-02-22T19:07:30.156Z,73.26
2023-02-22T19:09:57.011Z,73.38
2023-02-22T19:12:24.621Z,73.59
2023-02-22T19:14:51.299Z,73.32
2023-02-22T19:17:20.910Z,73.50
2023-02-22T19:19:48.503Z,73.29
2023-02-22T19:22:15.321Z,73.49
2023-02-22T19:24:46.181Z,73.54
2023-02-22T19:27:13.404Z,73.57
2023-02-22T19:29:40.736Z,73.14
2023-02-22T19:32:08.984Z,73.24
2023-02-22T19:34:37.130Z,73.25
2023-02-22T19:37:05.554Z,73.38
2023-02-22T19:39:33.572Z,73.29
2023-02-22T19:42:00.860Z,73.15
2023-02-22T19:44:28.248Z,73.40
2023-02-22T19:51:00.451Z,73.58
2023-02-22T19:53:36.647Z,73.73
2023-02-22T19:56:57.389Z,73.66
2023-02-22T19:59:54.484Z,73.49
